Time;durP1;ratioP1;P1;durP2;ratioP2;P2;SDS_P1;SDS_P2;PMS_P1;PMS_P2;Temp;Humidity;BMP_temperature;BMP_pressure;BME280_temperature;BME280_humidity;BME280_pressure;Samples;Min_cycle;Max_cycle;Signal;HPM_P1;HPM_P2
2021/08/09 00:01:12;;;;;;;;;;;;;;;20.74;56.62;100898.00;5119056;28;739;-51
2021/08/09 00:03:37;;;;;;;;;;;;;;;20.87;57.70;100895.63;5119125;28;789;-43
2021/08/09 00:06:03;;;;;;;;;;;;;;;20.99;58.25;100887.69;5118744;28;972;-51
2021/08/09 00:08:28;;;;;;;;;;;;;;;20.68;60.05;100894.50;5101422;28;1914;-42
2021/08/09 00:10:53;;;;;;;;;;;;;;;20.32;61.91;100897.72;5118959;28;743;-43
2021/08/09 00:13:19;;;;;;;;;;;;;;;20.38;60.83;100901.22;5118857;28;751;-43
2021/08/09 00:15:44;;;;;;;;;;;;;;;20.10;61.76;100895.50;5119126;28;843;-41
2021/08/09 00:18:10;;;;;;;;;;;;;;;20.71;62.11;100898.59;5118505;28;778;-42
2021/08/09 00:20:35;;;;;;;;;;;;;;;20.99;61.23;100907.84;5118490;28;962;-50
2021/08/09 00:23:01;;;;;;;;;;;;;;;21.34;60.45;100896.50;5118926;28;852;-45
2021/08/09 00:25:26;;;;;;;;;;;;;;;21.00;61.30;100908.69;5118466;28;1217;-53
2021/08/09 00:27:51;;;;;;;;;;;;;;;20.52;63.14;100904.91;5118340;28;1980;-52
2021/08/09 00:30:17;;;;;;;;;;;;;;;20.42;62.18;100905.03;5100522;28;1224;-56
2021/08/09 00:32:43;;;;;;;;;;;;;;;20.17;59.77;100906.19;5118147;28;899;-53
2021/08/09 00:35:09;;;;;;;;;;;;;;;20.59;62.41;100904.53;5100225;28;1168;-42
2021/08/09 00:37:35;;;;;;;;;;;;;;;21.01;62.88;100907.53;5100740;28;1272;-42
2021/08/09 00:40:01;;;;;;;;;;;;;;;21.49;61.02;100901.78;5099726;28;1137;-47
2021/08/09 00:42:27;;;;;;;;;;;;;;;21.82;59.85;100898.16;5100105;28;1112;-52
2021/08/09 00:44:53;;;;;;;;;;;;;;;21.37;61.03;100905.00;5100286;28;1252;-53
2021/08/09 00:47:19;;;;;;;;;;;;;;;20.84;63.19;100899.78;5100106;28;1992;-42
2021/08/09 00:49:44;;;;;;;;;;;;;;;20.57;62.55;100905.97;5099781;28;1113;-50
2021/08/09 00:52:10;;;;;;;;;;;;;;;20.48;60.60;100894.75;5099697;28;1224;-52
2021/08/09 00:54:36;;;;;;;;;;;;;;;20.95;62.70;100895.75;5082871;28;1260;-53
2021/08/09 00:57:03;;;;;;;;;;;;;;;21.19;62.29;100892.06;5100324;28;1124;-51
2021/08/09 00:59:30;;;;;;;;;;;;;;;21.17;60.86;100894.31;5083134;28;1146;-41
2021/08/09 01:01:56;;;;;;;;;;;;;;;21.51;60.45;100891.22;5082594;28;1138;-49
2021/08/09 01:04:22;;;;;;;;;;;;;;;21.05;62.00;100893.94;5099961;28;1447;-43
2021/08/09 01:06:48;;;;;;;;;;;;;;;20.73;63.30;100885.28;5098840;28;1921;-46
2021/08/09 01:09:25;;;;;;;;;;;;;;;20.58;62.70;100885.50;5099315;28;1161;-52
2021/08/09 01:12:09;;;;;;;;;;;;;;;20.52;60.65;100888.34;5082455;28;1213;-49
2021/08/09 01:14:41;;;;;;;;;;;;;;;21.37;61.71;100882.06;5099851;28;1090;-43
2021/08/09 01:17:09;;;;;;;;;;;;;;;21.66;60.75;100878.25;5117829;28;815;-55
2021/08/09 01:19:42;;;;;;;;;;;;;;;21.32;59.62;100873.84;5081928;28;1095;-42
2021/08/09 01:22:18;;;;;;;;;;;;;;;21.33;57.61;100869.97;5099473;28;1201;-52
2021/08/09 01:24:47;;;;;;;;;;;;;;;21.03;56.25;100869.38;5099425;28;1248;-54
2021/08/09 01:27:29;;;;;;;;;;;;;;;20.78;55.57;100871.41;5116537;28;1902;-41
2021/08/09 01:29:57;;;;;;;;;;;;;;;20.59;54.74;100873.31;5099463;28;1256;-53
2021/08/09 01:32:22;;;;;;;;;;;;;;;20.44;54.27;100872.44;5098911;28;780;-54
2021/08/09 01:34:48;;;;;;;;;;;;;;;20.48;53.45;100876.25;5115559;28;1084;-55
2021/08/09 01:37:15;;;;;;;;;;;;;;;20.14;54.09;100870.91;5099421;28;1244;-51
2021/08/09 01:39:41;;;;;;;;;;;;;;;20.27;53.21;100872.09;5098950;28;853;-48
2021/08/09 01:42:06;;;;;;;;;;;;;;;20.38;54.28;100870.84;5082461;28;1243;-42
2021/08/09 01:44:32;;;;;;;;;;;;;;;20.44;55.52;100868.84;5082164;28;1401;-51
2021/08/09 01:46:58;;;;;;;;;;;;;;;20.69;56.29;100870.44;5082567;28;1922;-51
2021/08/09 01:49:24;;;;;;;;;;;;;;;20.90;56.95;100859.91;5081319;28;1240;-44
2021/08/09 01:51:52;;;;;;;;;;;;;;;21.02;57.31;100859.44;5082604;28;1257;-42
2021/08/09 01:54:19;;;;;;;;;;;;;;;21.13;57.46;100855.38;5082399;28;1145;-45
2021/08/09 01:56:45;;;;;;;;;;;;;;;21.00;58.47;100856.16;5098487;28;1283;-54
2021/08/09 01:59:11;;;;;;;;;;;;;;;20.42;60.73;100863.63;5082521;28;611;-50
2021/08/09 02:01:37;;;;;;;;;;;;;;;20.29;60.68;100858.84;5098824;28;1224;-53
2021/08/09 02:04:02;;;;;;;;;;;;;;;20.25;60.19;100855.84;5081825;28;1292;-53
2021/08/09 02:06:29;;;;;;;;;;;;;;;20.48;61.64;100862.44;5095091;28;1910;-46
2021/08/09 02:08:58;;;;;;;;;;;;;;;21.16;59.12;100848.41;5095471;28;1168;-51
2021/08/09 02:11:24;;;;;;;;;;;;;;;21.05;59.59;100850.53;5095440;28;800;-53
2021/08/09 02:13:54;;;;;;;;;;;;;;;21.18;59.11;100851.69;5095563;28;1341;-43
2021/08/09 02:16:29;;;;;;;;;;;;;;;20.50;61.17;100860.19;5078728;28;1109;-42
2021/08/09 02:19:17;;;;;;;;;;;;;;;20.28;61.97;100851.66;5095446;28;1223;-52
2021/08/09 02:21:45;;;;;;;;;;;;;;;20.14;60.99;100852.38;5095257;28;1248;-53
2021/08/09 02:24:12;;;;;;;;;;;;;;;20.56;61.58;100860.13;5080879;28;1934;-52
2021/08/09 02:26:42;;;;;;;;;;;;;;;20.84;60.42;100850.84;5083195;28;1973;-50
2021/08/09 02:29:13;;;;;;;;;;;;;;;20.97;59.98;100851.22;5099856;28;1237;-42
2021/08/09 02:31:39;;;;;;;;;;;;;;;21.13;59.45;100847.06;5099051;28;1117;-42
2021/08/09 02:34:06;;;;;;;;;;;;;;;20.61;61.20;100847.06;5099624;28;1105;-49
2021/08/09 02:36:32;;;;;;;;;;;;;;;20.38;62.03;100861.75;5081429;28;1018;-54
2021/08/09 02:38:58;;;;;;;;;;;;;;;20.04;61.06;100848.94;5099080;28;1215;-53
2021/08/09 02:41:23;;;;;;;;;;;;;;;20.45;60.93;100857.47;5082084;28;1137;-53
2021/08/09 02:43:48;;;;;;;;;;;;;;;21.14;60.17;100854.25;5082510;28;1295;-43
2021/08/09 02:46:14;;;;;;;;;;;;;;;20.96;59.38;100861.47;5098679;28;1913;-55
2021/08/09 02:48:41;;;;;;;;;;;;;;;;;;5099154;28;1223;-52
2021/08/09 02:51:07;;;;;;;;;;;;;;;21.47;59.17;100859.75;5098776;28;1114;-55
2021/08/09 02:53:32;;;;;;;;;;;;;;;21.06;60.47;100854.13;5081748;28;1227;-54
2021/08/09 02:55:59;;;;;;;;;;;;;;;20.61;62.52;100858.09;5082020;28;780;-55
2021/08/09 02:58:24;;;;;;;;;;;;;;;20.35;62.74;100861.22;5099271;28;1120;-53
2021/08/09 03:00:51;;;;;;;;;;;;;;;20.40;60.93;100860.34;5081335;28;1125;-47
2021/08/09 03:03:24;;;;;;;;;;;;;;;21.17;61.74;100861.94;5098930;28;767;-41
2021/08/09 03:05:51;;;;;;;;;;;;;;;21.40;60.92;100864.84;5082150;28;1105;-43
2021/08/09 03:08:16;;;;;;;;;;;;;;;21.73;59.85;100866.78;5084379;28;1988;-49
2021/08/09 03:10:42;;;;;;;;;;;;;;;21.10;61.64;100864.28;5102549;28;1129;-48
2021/08/09 03:13:10;;;;;;;;;;;;;;;20.59;63.62;100876.09;5101737;28;1140;-52
2021/08/09 03:15:37;;;;;;;;;;;;;;;20.47;62.25;100877.34;5085203;28;1181;-49
2021/08/09 03:18:03;;;;;;;;;;;;;;;20.71;60.57;100859.91;5101334;28;1062;-48
2021/08/09 03:20:30;;;;;;;;;;;;;;;21.08;62.48;100863.75;5101642;28;1323;-47
2021/08/09 03:22:58;;;;;;;;;;;;;;;21.34;61.48;100866.09;5101565;28;1169;-46
2021/08/09 03:25:24;;;;;;;;;;;;;;;21.18;60.28;100874.66;5101667;28;1158;-50
2021/08/09 03:27:49;;;;;;;;;;;;;;;21.05;58.98;100874.59;5119575;28;1934;-47
2021/08/09 03:30:16;;;;;;;;;;;;;;;20.91;57.76;100871.78;5101688;28;1212;-46
2021/08/09 03:32:42;;;;;;;;;;;;;;;20.70;56.43;100879.56;5101718;28;1256;-45
2021/08/09 03:35:07;;;;;;;;;;;;;;;20.61;56.34;100885.72;5118620;28;1009;-50
2021/08/09 03:37:34;;;;;;;;;;;;;;;20.40;55.31;100885.19;5118283;28;1154;-48
2021/08/09 03:39:59;;;;;;;;;;;;;;;20.21;54.98;100881.59;5101018;28;1117;-42
2021/08/09 03:42:29;;;;;;;;;;;;;;;20.09;54.79;100880.06;5101194;28;1229;-46
2021/08/09 03:44:55;;;;;;;;;;;;;;;20.02;54.48;100876.00;5119354;28;819;-47
2021/08/09 03:47:20;;;;;;;;;;;;;;;20.03;53.95;100884.00;5100844;28;1982;-48
2021/08/09 03:49:46;;;;;;;;;;;;;;;20.12;53.35;100882.25;5119089;28;1028;-45
2021/08/09 03:52:12;;;;;;;;;;;;;;;20.22;55.27;100888.75;5100802;28;1213;-47
2021/08/09 03:54:38;;;;;;;;;;;;;;;20.65;56.92;100878.50;5101433;28;1114;-43
2021/08/09 03:57:03;;;;;;;;;;;;;;;20.84;58.62;100886.78;5101179;28;1344;-45
2021/08/09 03:59:29;;;;;;;;;;;;;;;20.72;60.16;100894.72;5101053;28;1283;-46
2021/08/09 04:01:54;;;;;;;;;;;;;;;20.56;62.17;100899.59;5119151;28;935;-51
2021/08/09 04:04:20;;;;;;;;;;;;;;;20.55;61.86;100897.94;5119406;28;751;-44
2021/08/09 04:06:45;;;;;;;;;;;;;;;20.27;60.46;100900.56;5118158;28;1977;-45
2021/08/09 04:09:11;;;;;;;;;;;;;;;20.57;62.13;100905.97;5100887;28;1226;-45
2021/08/09 04:11:37;;;;;;;;;;;;;;;21.20;63.23;100900.03;5100784;28;1153;-45
2021/08/09 04:14:03;;;;;;;;;;;;;;;21.48;62.61;100902.88;5100877;28;1110;-48
2021/08/09 04:16:29;;;;;;;;;;;;;;;21.65;62.28;100904.28;5100595;28;1114;-48
2021/08/09 04:18:54;;;;;;;;;;;;;;;20.83;64.80;100896.22;5100441;28;1394;-44
2021/08/09 04:21:20;;;;;;;;;;;;;;;20.82;64.87;100902.84;5118245;28;1028;-43
2021/08/09 04:23:46;;;;;;;;;;;;;;;20.49;62.40;100899.16;5118472;28;836;-43
2021/08/09 04:26:12;;;;;;;;;;;;;;;21.01;62.61;100907.53;5118712;28;1111;-45
2021/08/09 04:28:38;;;;;;;;;;;;;;;21.52;63.62;100901.19;5101029;28;1992;-43
2021/08/09 04:31:04;;;;;;;;;;;;;;;21.80;62.71;100898.47;5100197;28;1271;-44
2021/08/09 04:33:29;;;;;;;;;;;;;;;21.08;64.82;100902.44;5100367;28;1209;-43
2021/08/09 04:35:56;;;;;;;;;;;;;;;20.96;65.32;100902.13;5100241;28;1249;-48
2021/08/09 04:38:24;;;;;;;;;;;;;;;20.52;63.15;100899.41;5118419;28;929;-47
2021/08/09 04:40:49;;;;;;;;;;;;;;;20.83;61.30;100901.75;5118553;28;779;-45
2021/08/09 04:43:15;;;;;;;;;;;;;;;21.42;62.99;100901.34;5100230;28;1133;-47
2021/08/09 04:45:41;;;;;;;;;;;;;;;21.93;63.14;100888.53;5117558;28;791;-44
2021/08/09 04:48:06;;;;;;;;;;;;;;;22.13;62.33;100898.38;5099609;28;1992;-47
2021/08/09 04:50:32;;;;;;;;;;;;;;;21.27;65.04;100898.84;5099899;28;1243;-56
2021/08/09 04:52:57;;;;;;;;;;;;;;;20.95;64.01;100903.22;5099630;28;1129;-52
2021/08/09 04:55:28;;;;;;;;;;;;;;;20.74;62.67;100900.75;5100294;28;1260;-50
2021/08/09 04:57:56;;;;;;;;;;;;;;;20.50;62.56;100900.81;5100094;28;1259;-48
2021/08/09 05:00:26;;;;;;;;;;;;;;;20.41;63.14;100905.34;5099768;28;1145;-48
2021/08/09 05:02:53;;;;;;;;;;;;;;;21.16;62.53;100898.19;5100028;28;1225;-46
2021/08/09 05:05:19;;;;;;;;;;;;;;;21.11;62.70;100909.31;5099097;28;1276;-47
2021/08/09 05:07:44;;;;;;;;;;;;;;;21.23;61.05;100908.88;5117837;28;1909;-49
2021/08/09 05:10:12;;;;;;;;;;;;;;;21.37;59.65;100909.72;5099778;28;1121;-49
2021/08/09 05:12:38;;;;;;;;;;;;;;;21.19;59.58;100909.44;5117655;28;794;-51
2021/08/09 05:15:07;;;;;;;;;;;;;;;20.63;61.14;100913.88;5098448;28;1205;-43
2021/08/09 05:17:33;;;;;;;;;;;;;;;20.52;60.90;100913.22;5099116;28;1296;-46
2021/08/09 05:19:58;;;;;;;;;;;;;;;20.13;59.76;100903.22;5117322;28;945;-48
2021/08/09 05:22:24;;;;;;;;;;;;;;;20.63;60.23;100918.59;5099013;28;1129;-48
2021/08/09 05:24:49;;;;;;;;;;;;;;;20.77;59.40;100913.97;5098566;28;1119;-46
2021/08/09 05:27:15;;;;;;;;;;;;;;;21.10;58.20;100922.34;5098858;28;1921;-46
2021/08/09 05:29:40;;;;;;;;;;;;;;;21.24;57.67;100922.41;5099263;28;1110;-45
2021/08/09 05:32:07;;;;;;;;;;;;;;;21.22;57.64;100924.63;5117567;28;767;-43
2021/08/09 05:34:32;;;;;;;;;;;;;;;20.72;59.08;100916.84;5097883;28;966;-46
2021/08/09 05:36:58;;;;;;;;;;;;;;;20.40;60.22;100923.88;5098724;28;1370;-53
2021/08/09 05:39:24;;;;;;;;;;;;;;;20.08;60.05;100925.34;5099438;28;1252;-48
2021/08/09 05:41:49;;;;;;;;;;;;;;;20.31;60.84;100928.38;5099374;28;1141;-46
2021/08/09 05:44:17;;;;;;;;;;;;;;;20.57;59.80;100933.59;5116859;28;812;-45
2021/08/09 05:46:43;;;;;;;;;;;;;;;20.64;59.47;100934.03;5098616;28;2020;-47
2021/08/09 05:49:11;;;;;;;;;;;;;;;20.85;58.92;100924.38;5116923;28;824;-45
2021/08/09 05:51:39;;;;;;;;;;;;;;;20.87;58.77;100923.25;5116378;28;954;-46
2021/08/09 05:54:08;;;;;;;;;;;;;;;21.01;58.22;100918.59;5097890;28;1213;-45
2021/08/09 05:56:34;;;;;;;;;;;;;;;21.03;58.21;100917.19;5098873;28;1127;-48
2021/08/09 05:59:04;;;;;;;;;;;;;;;20.61;59.53;100926.38;5116535;28;768;-45
2021/08/09 06:01:29;;;;;;;;;;;;;;;20.46;59.90;100919.91;5116523;28;747;-45
2021/08/09 06:03:55;;;;;;;;;;;;;;;20.14;59.41;100926.09;5098775;28;1255;-48
2021/08/09 06:06:22;;;;;;;;;;;;;;;20.41;60.54;100928.28;5097952;28;1918;-46
2021/08/09 06:08:57;;;;;;;;;;;;;;;20.75;59.39;100921.75;5098398;28;1002;-45
2021/08/09 06:11:22;;;;;;;;;;;;;;;20.92;59.19;100917.66;5098044;28;1924;-45
2021/08/09 06:13:49;;;;;;;;;;;;;;;20.76;59.88;100912.34;5098045;28;978;-47
2021/08/09 06:16:16;;;;;;;;;;;;;;;20.51;60.84;100927.31;5098499;28;1262;-51
2021/08/09 06:18:42;;;;;;;;;;;;;;;20.36;60.41;100922.81;5098668;28;1189;-49
2021/08/09 06:21:07;;;;;;;;;;;;;;;20.00;61.11;100917.72;5097324;28;994;-47
2021/08/09 06:23:36;;;;;;;;;;;;;;;20.64;60.75;100920.22;5098237;28;1084;-46
2021/08/09 06:26:04;;;;;;;;;;;;;;;20.97;59.63;100923.09;5098182;28;1410;-47
2021/08/09 06:28:35;;;;;;;;;;;;;;;21.02;59.66;100925.78;5097781;28;2030;-44
2021/08/09 06:31:04;;;;;;;;;;;;;;;20.79;60.69;100928.34;5098332;28;1300;-46
2021/08/09 06:33:30;;;;;;;;;;;;;;;20.50;61.71;100920.94;5098449;28;1264;-43
2021/08/09 06:35:56;;;;;;;;;;;;;;;20.25;61.04;100919.34;5097855;28;1216;-48
2021/08/09 06:38:21;;;;;;;;;;;;;;;20.23;61.55;100921.59;5097472;28;772;-51
2021/08/09 06:40:47;;;;;;;;;;;;;;;20.65;61.30;100921.84;5116126;28;871;-44
2021/08/09 06:43:13;;;;;;;;;;;;;;;20.96;60.28;100916.75;5097654;28;831;-47
2021/08/09 06:45:45;;;;;;;;;;;;;;;20.97;60.03;100912.03;5098417;28;1387;-48
2021/08/09 06:48:12;;;;;;;;;;;;;;;20.58;61.34;100913.13;5098344;28;1913;-47
2021/08/09 06:50:39;;;;;;;;;;;;;;;20.77;60.57;100915.94;5097235;28;1049;-46
2021/08/09 06:53:05;;;;;;;;;;;;;;;20.37;60.25;100907.88;5098125;28;1244;-49
2021/08/09 06:55:31;;;;;;;;;;;;;;;20.95;60.47;100914.28;5097861;28;1845;-52
2021/08/09 06:57:56;;;;;;;;;;;;;;;20.93;60.88;100916.50;5097826;28;1253;-44
2021/08/09 07:00:22;;;;;;;;;;;;;;;20.90;60.70;100909.66;5098333;28;1213;-52
2021/08/09 07:02:47;;;;;;;;;;;;;;;20.65;61.55;100916.31;5097907;28;1184;-47
2021/08/09 07:05:13;;;;;;;;;;;;;;;20.65;61.99;100910.81;5114946;28;1017;-54
2021/08/09 07:07:44;;;;;;;;;;;;;;;20.99;58.21;100907.84;5097561;28;1909;-54
2021/08/09 07:10:10;;;;;;;;;;;;;;;21.22;58.64;100918.28;5099423;28;1094;-47
2021/08/09 07:12:36;;;;;;;;;;;;;;;21.61;59.29;100911.56;5119731;28;791;-57
2021/08/09 07:15:01;;;;;;;;;;;;;;;21.53;59.49;100918.59;5101791;28;1267;-57
2021/08/09 07:17:27;;;;;;;;;;;;;;;21.68;59.13;100923.84;5101717;28;1200;-46
2021/08/09 07:19:53;;;;;;;;;;;;;;;21.30;60.33;100921.16;5100722;28;1205;-54
2021/08/09 07:22:18;;;;;;;;;;;;;;;21.14;61.01;100926.16;5101033;28;756;-57
2021/08/09 07:24:45;;;;;;;;;;;;;;;20.48;60.29;100928.72;5101514;28;1217;-46
2021/08/09 07:27:12;;;;;;;;;;;;;;;20.22;60.10;100927.41;5100764;28;2074;-49
2021/08/09 07:29:38;;;;;;;;;;;;;;;20.97;61.95;100928.63;5101566;28;1201;-49
2021/08/09 07:32:03;;;;;;;;;;;;;;;21.37;62.98;100921.59;5100653;28;1268;-45
2021/08/09 07:34:29;;;;;;;;;;;;;;;21.86;62.74;100929.63;5100786;28;1201;-46
2021/08/09 07:36:54;;;;;;;;;;;;;;;21.63;64.20;100928.66;5101114;28;1326;-53
2021/08/09 07:39:20;;;;;;;;;;;;;;;21.41;65.31;100921.84;5119398;28;772;-45
2021/08/09 07:41:45;;;;;;;;;;;;;;;21.01;62.45;100924.97;5100902;28;1555;-51
2021/08/09 07:44:11;;;;;;;;;;;;;;;20.37;59.20;100921.69;5101080;28;1315;-44
2021/08/09 07:46:37;;;;;;;;;;;;;;;20.46;59.86;100919.91;5119042;28;1978;-45
2021/08/09 07:49:03;;;;;;;;;;;;;;;20.25;59.35;100916.59;5118967;28;776;-45
2021/08/09 07:51:31;;;;;;;;;;;;;;;20.22;57.28;100919.13;5100685;28;1227;-48
2021/08/09 07:53:58;;;;;;;;;;;;;;;20.14;55.90;100918.63;5101073;28;1157;-47
2021/08/09 07:56:23;;;;;;;;;;;;;;;20.31;54.66;100920.94;5099962;28;1137;-47
2021/08/09 07:58:49;;;;;;;;;;;;;;;20.25;54.21;100924.06;5100780;28;1308;-51
2021/08/09 08:01:15;;;;;;;;;;;;;;;20.20;53.78;100915.81;5100717;28;1305;-55
2021/08/09 08:03:41;;;;;;;;;;;;;;;20.18;53.52;100919.69;5118843;28;755;-54
2021/08/09 08:06:06;;;;;;;;;;;;;;;20.21;53.59;100923.00;5100044;28;1098;-49
2021/08/09 08:08:32;;;;;;;;;;;;;;;20.25;53.02;100926.81;5100692;28;1902;-48
2021/08/09 08:10:59;;;;;;;;;;;;;;;20.21;52.95;100926.56;5100187;28;1196;-53
2021/08/09 08:13:26;;;;;;;;;;;;;;;20.27;52.93;100919.88;5100785;28;1173;-46
2021/08/09 08:15:52;;;;;;;;;;;;;;;20.21;53.34;100923.00;5099795;28;807;-53
2021/08/09 08:18:19;;;;;;;;;;;;;;;20.19;53.25;100923.28;5118713;28;775;-45
2021/08/09 08:20:47;;;;;;;;;;;;;;;20.19;53.32;100926.06;5100078;28;1141;-43
2021/08/09 08:23:13;;;;;;;;;;;;;;;20.24;53.15;100920.44;5100143;28;1220;-44
2021/08/09 08:25:38;;;;;;;;;;;;;;;20.37;52.80;100921.69;5100315;28;1159;-43
2021/08/09 08:28:03;;;;;;;;;;;;;;;20.11;53.46;100918.41;5118724;28;1910;-50
2021/08/09 08:30:29;;;;;;;;;;;;;;;20.22;53.73;100917.19;5100158;28;1113;-50
2021/08/09 08:32:55;;;;;;;;;;;;;;;20.26;53.53;100914.63;5100033;28;1197;-54
2021/08/09 08:35:21;;;;;;;;;;;;;;;20.40;53.22;100915.56;5099503;28;1323;-43
2021/08/09 08:37:46;;;;;;;;;;;;;;;20.51;54.23;100913.50;5118223;28;771;-56
2021/08/09 08:40:12;;;;;;;;;;;;;;;20.66;55.29;100915.22;5099459;28;1003;-45
2021/08/09 08:42:44;;;;;;;;;;;;;;;20.74;56.23;100911.81;5099196;28;883;-45
2021/08/09 08:45:09;;;;;;;;;;;;;;;20.81;57.06;100920.56;5099999;28;1137;-45
2021/08/09 08:47:36;;;;;;;;;;;;;;;20.76;58.04;100920.66;5099632;28;1909;-51
2021/08/09 08:50:03;;;;;;;;;;;;;;;20.85;58.30;100921.59;5081803;28;1279;-49
2021/08/09 08:52:29;;;;;;;;;;;;;;;20.66;59.46;100921.59;5099767;28;1208;-46
2021/08/09 08:54:54;;;;;;;;;;;;;;;20.43;59.84;100925.22;5099701;28;1114;-54
2021/08/09 08:57:21;;;;;;;;;;;;;;;19.87;58.88;100922.00;5117698;28;791;-44
2021/08/09 08:59:46;;;;;;;;;;;;;;;20.54;61.05;100914.81;5118036;28;704;-45
2021/08/09 09:02:31;;;;;;;;;;;;;;;21.17;60.98;100906.19;5117823;28;751;-53
2021/08/09 09:05:06;;;;;;;;;;;;;;;21.50;61.82;100913.66;5117330;28;966;-52
2021/08/09 09:07:32;;;;;;;;;;;;;;;21.16;64.24;100915.59;5117356;28;1909;-48
2021/08/09 09:10:11;;;;;;;;;;;;;;;21.07;64.02;100917.41;5117607;28;763;-46
2021/08/09 09:12:37;;;;;;;;;;;;;;;20.46;60.16;100914.38;5117449;28;830;-52
2021/08/09 09:15:03;;;;;;;;;;;;;;;20.99;61.19;100912.56;5117463;28;782;-43
2021/08/09 09:17:32;;;;;;;;;;;;;;;21.36;62.03;100919.13;5117512;28;767;-52
2021/08/09 09:19:59;;;;;;;;;;;;;;;20.93;63.47;100914.59;5116935;28;1005;-50
2021/08/09 09:22:24;;;;;;;;;;;;;;;20.97;62.47;100915.63;5117476;28;879;-56
2021/08/09 09:24:51;;;;;;;;;;;;;;;21.24;60.31;100913.25;5117229;28;1151;-54
2021/08/09 09:27:29;;;;;;;;;;;;;;;21.07;60.03;100922.94;5116788;28;1905;-57
2021/08/09 09:29:55;;;;;;;;;;;;;;;20.76;60.31;100917.88;5117502;28;776;-54
2021/08/09 09:32:22;;;;;;;;;;;;;;;20.61;60.21;100921.66;5116362;28;827;-51
2021/08/09 09:34:55;;;;;;;;;;;;;;;20.07;58.82;100923.69;5116976;28;962;-56
2021/08/09 09:37:42;;;;;;;;;;;;;;;20.60;60.21;100924.72;5099177;28;1204;-54
2021/08/09 09:40:08;;;;;;;;;;;;;;;20.81;59.01;100917.78;5116644;28;775;-54
2021/08/09 09:42:37;;;;;;;;;;;;;;;20.97;58.20;100912.88;5117258;28;934;-55
2021/08/09 09:45:21;;;;;;;;;;;;;;;20.89;58.17;100921.84;5117172;28;815;-54
2021/08/09 09:48:00;;;;;;;;;;;;;;;20.76;58.45;100920.66;5116533;28;1970;-45
2021/08/09 09:50:25;;;;;;;;;;;;;;;20.68;58.46;100919.34;5116633;28;993;-54
2021/08/09 09:52:50;;;;;;;;;;;;;;;20.35;58.27;100923.91;5116720;28;945;-48
2021/08/09 09:55:16;;;;;;;;;;;;;;;20.24;59.26;100916.88;5098273;28;875;-55
2021/08/09 09:57:42;;;;;;;;;;;;;;;20.50;59.20;100914.63;5117166;28;871;-55
2021/08/09 10:00:12;;;;;;;;;;;;;;;20.95;57.85;100914.28;5117017;28;791;-56
2021/08/09 10:02:41;;;;;;;;;;;;;;;20.98;57.75;100919.22;5116840;28;767;-51
2021/08/09 10:05:07;;;;;;;;;;;;;;;21.18;57.41;100913.34;5115851;28;943;-54
2021/08/09 10:07:33;;;;;;;;;;;;;;;20.78;58.78;100910.09;5116556;28;1914;-53
2021/08/09 10:09:59;;;;;;;;;;;;;;;20.62;59.46;100912.25;5098281;28;906;-56
2021/08/09 10:12:25;;;;;;;;;;;;;;;20.32;58.56;100907.94;5116953;28;803;-55
2021/08/09 10:14:52;;;;;;;;;;;;;;;20.53;60.01;100905.72;5097879;28;801;-56
2021/08/09 10:17:18;;;;;;;;;;;;;;;20.84;59.45;100908.91;5115772;28;850;-49
2021/08/09 10:19:44;;;;;;;;;;;;;;;20.99;59.28;100907.84;5097510;28;1062;-55
2021/08/09 10:22:10;;;;;;;;;;;;;;;20.88;59.58;100902.78;5116798;28;759;-45
2021/08/09 10:24:35;;;;;;;;;;;;;;;20.75;60.28;100910.72;5116241;28;1099;-54
2021/08/09 10:27:01;;;;;;;;;;;;;;;20.78;59.39;100907.34;5116772;28;1910;-53
2021/08/09 10:29:26;;;;;;;;;;;;;;;20.41;58.16;100895.13;5097942;28;906;-54
2021/08/09 10:31:52;;;;;;;;;;;;;;;20.95;60.08;100898.50;5097614;28;807;-54
2021/08/09 10:34:40;;;;;;;;;;;;;;;21.08;59.88;100899.69;5116845;28;828;-53
2021/08/09 10:37:08;;;;;;;;;;;;;;;21.31;58.99;100897.13;5095986;28;882;-55
2021/08/09 10:40:03;;;;;;;;;;;;;;;20.91;60.53;100896.66;5096267;28;822;-53
2021/08/09 10:42:36;;;;;;;;;;;;;;;20.76;60.98;100895.78;5074822;28;1382;-52
2021/08/09 10:45:03;;;;;;;;;;;;;;;20.32;59.20;100896.91;5103273;28;1132;-49
2021/08/09 10:47:47;;;;;;;;;;;;;;;20.85;60.31;100904.22;5120109;28;1914;-51
2021/08/09 10:50:41;;;;;;;;;;;;;;;21.02;60.55;100903.66;5120049;28;1005;-46
2021/08/09 10:53:33;;;;;;;;;;;;;;;21.34;59.42;100904.81;5120137;28;1178;-49
2021/08/09 10:55:58;;;;;;;;;;;;;;;20.99;60.30;100901.50;5119869;28;1552;-48
2021/08/09 10:58:46;;;;;;;;;;;;;;;20.94;60.57;100896.06;5119841;28;810;-51
2021/08/09 11:01:15;;;;;;;;;;;;;;;20.33;59.39;100890.28;5120443;28;795;-52
2021/08/09 11:03:59;;;;;;;;;;;;;;;20.35;60.46;100891.59;5120508;28;818;-49
2021/08/09 11:06:37;;;;;;;;;;;;;;;20.83;61.26;100885.16;5119630;28;1012;-56
2021/08/09 11:09:22;;;;;;;;;;;;;;;20.93;60.91;100888.88;5119426;28;811;-49
2021/08/09 11:12:07;;;;;;;;;;;;;;;20.96;60.53;100883.56;5119702;28;1345;-46
2021/08/09 11:14:33;;;;;;;;;;;;;;;20.77;61.30;100902.13;5119898;28;763;-51
2021/08/09 11:16:59;;;;;;;;;;;;;;;20.57;59.96;100889.41;5101468;28;1285;-51
2021/08/09 11:19:24;;;;;;;;;;;;;;;20.28;60.63;100891.13;5119621;28;942;-45
2021/08/09 11:21:50;;;;;;;;;;;;;;;20.89;61.08;100893.34;5119534;28;744;-48
2021/08/09 11:24:29;;;;;;;;;;;;;;;21.17;59.91;100895.13;5101023;28;1154;-47
2021/08/09 11:27:02;;;;;;;;;;;;;;;21.15;59.90;100897.38;5119478;28;1981;-50
2021/08/09 11:29:28;;;;;;;;;;;;;;;20.85;60.68;100905.00;5119843;28;783;-51
2021/08/09 11:31:53;;;;;;;;;;;;;;;20.62;61.35;100892.91;5100726;28;776;-53
2021/08/09 11:34:19;;;;;;;;;;;;;;;20.32;58.74;100889.44;5101032;28;1235;-50
2021/08/09 11:36:44;;;;;;;;;;;;;;;20.60;60.71;100895.13;5119256;28;962;-46
2021/08/09 11:39:09;;;;;;;;;;;;;;;20.97;61.04;100890.75;5118985;28;775;-47
2021/08/09 11:41:35;;;;;;;;;;;;;;;21.58;60.44;100898.34;5119290;28;851;-50
2021/08/09 11:44:08;;;;;;;;;;;;;;;21.36;62.14;100897.00;5119365;28;847;-47
2021/08/09 11:46:45;;;;;;;;;;;;;;;21.17;63.54;100899.84;5118982;28;795;-48
2021/08/09 11:49:10;;;;;;;;;;;;;;;21.00;60.39;100879.09;5118921;28;866;-45
2021/08/09 11:51:36;;;;;;;;;;;;;;;20.64;57.51;100874.06;5118807;28;978;-45
2021/08/09 11:54:03;;;;;;;;;;;;;;;21.55;60.39;100860.22;5100821;28;1169;-45
2021/08/09 11:56:36;;;;;;;;;;;;;;;22.00;61.99;100872.31;5118711;28;838;-50
2021/08/09 11:59:14;;;;;;;;;;;;;;;22.10;63.65;100876.00;5119527;28;768;-47
2021/08/09 12:01:40;;;;;;;;;;;;;;;21.63;65.63;100868.63;5118348;28;831;-48
2021/08/09 12:04:08;;;;;;;;;;;;;;;21.36;64.53;100880.41;5119173;28;923;-51
2021/08/09 12:06:47;;;;;;;;;;;;;;;20.48;59.13;100873.47;5118242;28;1130;-50
2021/08/09 12:09:13;;;;;;;;;;;;;;;20.78;59.37;100860.34;5118561;28;791;-47
2021/08/09 12:11:39;;;;;;;;;;;;;;;20.49;58.73;100864.06;5119077;28;747;-46
2021/08/09 12:14:08;;;;;;;;;;;;;;;20.33;57.19;100859.88;5100312;28;1312;-49
2021/08/09 12:16:44;;;;;;;;;;;;;;;20.33;55.59;100857.13;5118565;28;807;-44
2021/08/09 12:19:11;;;;;;;;;;;;;;;20.49;53.85;100861.28;5118847;28;819;-46
2021/08/09 12:21:37;;;;;;;;;;;;;;;20.46;53.29;100853.59;5117798;28;958;-55
2021/08/09 12:24:03;;;;;;;;;;;;;;;20.35;53.53;100854.88;5100436;28;1162;-45
2021/08/09 12:26:32;;;;;;;;;;;;;;;20.51;53.86;100855.50;5118552;28;799;-46
2021/08/09 12:28:58;;;;;;;;;;;;;;;20.50;55.39;100854.66;5118460;28;1914;-54
2021/08/09 12:31:39;;;;;;;;;;;;;;;20.91;55.94;100857.97;5118284;28;783;-51
2021/08/09 12:34:05;;;;;;;;;;;;;;;21.05;56.83;100861.59;5118696;28;847;-51
2021/08/09 12:36:31;;;;;;;;;;;;;;;21.06;57.76;100854.13;5118004;28;950;-45
2021/08/09 12:38:56;;;;;;;;;;;;;;;20.69;59.58;100859.38;5118137;28;767;-53
2021/08/09 12:41:25;;;;;;;;;;;;;;;20.59;60.44;100854.78;5118499;28;760;-51
2021/08/09 12:43:50;;;;;;;;;;;;;;;20.11;59.15;100855.75;5118298;28;735;-45
2021/08/09 12:46:16;;;;;;;;;;;;;;;20.53;60.59;100856.00;5116916;28;1110;-46
2021/08/09 12:48:45;;;;;;;;;;;;;;;21.13;60.97;100863.66;5118588;28;1910;-49
2021/08/09 12:51:11;;;;;;;;;;;;;;;21.60;60.97;100854.56;5117260;28;957;-48
2021/08/09 12:53:36;;;;;;;;;;;;;;;21.51;62.68;100859.97;5117484;28;759;-52